Terminal Aerodrome Forecast
Issued by NWS Central Illinois

Home | Current Version | Previous Version | Text Only | Print | Product List | Glossary On
Versions: 1 2 3 4 5 6 7 8 9 10 11 12 13 14
000
FTUS43 KILX 032320
TAFSPI
TAF
KSPI 032320Z 0400/0424 03004KT P6SM SKC
     FM040900 00000KT 4SM BR SCT250
     FM041400 VRB04KT P6SM SCT035=

USA.gov is the U.S. government's official web portal to all federal, state and local government web resources and services.